Latest Weather Observations for Christmas Creek

IDW60801

Issued at 9:53 pm WST Friday 23 April 2021 (issued every 10 minutes, with the page automatically refreshed every 10 minutes)

About weather observations | Map of weather stations | Latest weather observations for WA | Other Formats
Station Details ID: 505049 Name: CHRISTMAS CREEK Lat: -22.36 Lon: 119.65 Height: 437.21 m
Data from the previous 72 hours. | See also: Recent months for locations in Western Australia
Date/Time
WST
Temp
°C
App
Temp
°C
Dew
Point
°C
Rel
Hum
%
Delta-T
°C
Wind Press
QNH
hPa
Press
MSL
hPa
Rain since
9am
mm
Dir  Spd
km/h
Gust
km/h
Spd
kts
Gust
kts
23/09:30pm 21.1 18.9 5.5 36 7.9 ENE 6 6 3 3 1019.7 1017.2 0.0
23/09:00pm 22.9 20.4 3.9 29 9.4 ENE 6 6 3 3 1019.6 1017.1 0.0
23/08:30pm 23.9 21.1 3.2 26 10.2 ESE 7 11 4 6 1019.3 1016.8 0.0
23/08:00pm 23.8 21.3 3.7 27 10.0 ESE 6 7 3 4 1019.1 1016.6 0.0
23/07:30pm 24.2 21.7 4.0 27 10.2 ESE 6 7 3 4 1018.8 1016.3 0.0
23/07:00pm 24.3 21.1 3.0 25 10.5 SSE 9 11 5 6 1018.3 1015.8 0.0
23/06:30pm 25.6 22.3 2.3 22 11.5 SSE 9 13 5 7 1017.9 1015.4 0.0
23/06:00pm 26.8 23.4 2.0 20 12.2 SSE 9 11 5 6 1017.6 1015.1 0.0
23/05:30pm 28.7 24.7 0.4 16 13.8 SE 11 15 6 8 1017.3 1014.8 0.0
23/05:00pm 29.3 25.6 0.0 15 14.2 ESE 9 17 5 9 1017.1 1014.6 0.0
23/04:30pm 29.6 26.2 -0.7 14 14.6 E 7 13 4 7 1016.9 1014.4 0.0
23/04:00pm 29.8 25.3 -0.5 14 14.6 SE 13 22 7 12 1016.8 1014.3 0.0
23/03:30pm 29.7 24.8 -0.6 14 14.6 ESE 15 26 8 14 1016.7 1014.2 0.0
23/03:00pm 29.7 25.2 -0.6 14 14.6 ENE 13 20 7 11 1016.7 1014.2 0.0
23/02:30pm 29.5 25.8 0.2 15 14.3 E 9 19 5 10 1016.8 1014.3 0.0
23/02:00pm 29.7 24.8 -0.6 14 14.6 ESE 15 24 8 13 1017.2 1014.7 0.0
23/01:30pm 29.9 26.7 0.5 15 14.4 ESE 7 20 4 11 1017.4 1014.9 0.0
23/01:00pm 29.0 25.3 -0.2 15 14.1 NE 9 22 5 12 1017.9 1015.4 0.0
23/12:30pm 29.1 24.8 0.7 16 13.9 E 13 20 7 11 1018.4 1015.9 0.0
23/12:00pm 29.0 23.8 -0.2 15 14.1 E 17 24 9 13 1018.9 1016.4 0.0
23/11:30am 28.1 22.3 -0.1 16 13.5 E 20 28 11 15 1019.4 1016.9 0.0
23/11:00am 27.7 21.6 0.5 17 13.1 E 22 32 12 17 1019.8 1017.3 0.0
23/10:30am 27.0 20.2 0.7 18 12.7 E 26 35 14 19 1020.1 1017.6 0.0
23/10:00am 27.0 21.1 1.4 19 12.5 E 22 33 12 18 1020.4 1018.0 0.0
23/09:30am 25.6 19.3 1.7 21 11.6 E 24 32 13 17 1020.6 1018.1 0.0
23/09:00am 24.7 18.4 1.6 22 11.1 E 24 32 13 17 1020.4 1018.0 0.0
23/08:30am 23.4 18.5 2.3 25 10.2 ESE 17 24 9 13 1020.2 1017.7 0.0
23/08:00am 21.9 17.4 2.1 27 9.4 ESE 15 22 8 12 1020.3 1017.9 0.0
23/07:30am 20.7 16.9 2.0 29 8.8 ESE 11 17 6 9 1020.2 1017.7 0.0
23/07:14am 20.0 16.3 2.4 31 8.3 ESE 11 19 6 10 1020.1 1017.6 0.0
23/07:00am 18.0 15.9 3.9 39 6.8 SE 4 13 2 7 1019.9 1017.4 0.0
23/06:33am 17.9 14.6 2.6 36 7.2 ESE 9 11 5 6 1019.6 1017.1 0.0
23/06:30am 17.9 14.6 2.6 36 7.2 ESE 9 11 5 6 1019.5 1017.0 0.0
23/06:00am 16.9 13.4 3.6 41 6.3 SSE 11 13 6 7 1019.2 1016.7 0.0
23/05:30am 19.3 15.0 1.3 30 8.3 ESE 13 20 7 11 1018.8 1016.3 0.0
23/05:00am 19.8 16.3 1.3 29 8.6 E 9 13 5 7 1018.6 1016.1 0.0
23/04:30am 20.4 16.4 0.8 27 9.0 E 11 19 6 10 1018.5 1016.0 0.0
23/04:00am 18.5 15.6 2.4 34 7.5 ESE 7 9 4 5 1018.5 1016.0 0.0
23/03:30am 19.3 16.0 2.6 33 7.9 ENE 9 17 5 9 1018.3 1015.8 0.0
23/03:00am 17.5 15.3 5.4 45 6.0 NE 6 9 3 5 1018.4 1015.9 0.0
23/02:30am 16.2 15.0 6.6 53 4.8 ESE 2 6 1 3 1018.5 1016.0 0.0
23/02:00am 15.3 13.8 6.6 56 4.3 S 4 6 2 3 1018.7 1016.2 0.0
23/01:30am 17.5 15.8 4.1 41 6.5 ESE 2 6 1 3 1018.9 1016.4 0.0
23/01:00am 19.7 16.6 3.8 35 7.7 ENE 9 9 5 5 1018.9 1016.4 0.0
23/12:30am 19.9 17.3 4.0 35 7.8 NE 7 7 4 4 1019.1 1016.6 0.0
23/12:00am 19.3 17.3 6.1 42 6.7 NE 6 7 3 4 1019.4 1016.9 0.0
 
Date/Time
WST
Temp
°C
App
Temp
°C
Dew
Point
°C
Rel
Hum
%
Delta-T
°C
Wind Press
QNH
hPa
Press
MSL
hPa
Rain since
9am
mm
Dir  Spd
km/h
Gust
km/h
Spd
kts
Gust
kts
22/11:30pm 18.4 17.3 6.9 47 5.9 NE 2 4 1 2 1019.5 1017.0 0.0
22/11:00pm 19.0 17.5 5.1 40 6.9 ENE 2 4 1 2 1019.6 1017.1 0.0
22/10:30pm 19.0 16.7 5.8 42 6.6 SE 7 15 4 8 1019.8 1017.3 0.0
22/10:00pm 21.3 18.8 4.8 34 8.3 ENE 7 9 4 5 1019.8 1017.3 0.0
22/09:30pm 22.2 19.5 3.8 30 9.1 NE 7 7 4 4 1019.8 1017.3 0.0
22/09:00pm 21.9 19.7 5.3 34 8.4 ENE 6 7 3 4 1019.9 1017.4 0.0
22/08:30pm 22.7 20.0 2.8 27 9.7 E 6 7 3 4 1019.8 1017.3 0.0
22/08:06pm 21.9 19.1 3.1 29 9.2 SE 7 9 4 5 1019.6 1017.1 0.0
22/08:00pm 22.1 19.2 2.8 28 9.3 SE 7 7 4 4 1019.5 1017.0 0.0
22/07:32pm 24.2 21.4 1.8 23 10.8 ESE 6 7 3 4 1019.1 1016.6 0.0
22/07:30pm 24.4 21.5 1.3 22 11.1 ESE 6 7 3 4 1019.1 1016.6 0.0
22/07:00pm 26.0 22.3 -0.1 18 12.3 ESE 9 11 5 6 1018.6 1016.1 0.0
22/06:30pm 26.8 22.6 -1.1 16 13.0 SE 11 15 6 8 1018.3 1015.8 0.0
22/06:00pm 27.7 23.4 -1.3 15 13.6 ESE 11 17 6 9 1017.6 1015.1 0.0
22/05:30pm 28.6 22.8 -1.5 14 14.2 SE 19 26 10 14 1017.3 1014.8 0.0
22/05:00pm 29.1 23.2 -2.1 13 14.6 SE 19 28 10 15 1017.1 1014.6 0.0
22/04:30pm 29.7 22.8 -2.7 12 15.0 SE 24 35 13 19 1016.8 1014.3 0.0
22/04:00pm 29.9 23.4 -2.6 12 15.1 ESE 22 33 12 18 1016.7 1014.2 0.0
22/03:30pm 30.1 23.2 -2.4 12 15.2 ESE 24 33 13 18 1016.7 1014.2 0.0
22/03:00pm 30.3 23.1 -2.2 12 15.3 SE 26 33 14 18 1016.8 1014.3 0.0
22/02:30pm 30.1 23.8 -1.3 13 15.0 E 22 37 12 20 1017.0 1014.5 0.0
22/02:00pm 30.0 22.9 -1.4 13 14.9 ESE 26 37 14 20 1017.5 1015.0 0.0
22/01:30pm 29.8 22.5 -2.6 12 15.1 ESE 26 39 14 21 1017.8 1015.3 0.0
22/01:00pm 29.7 23.2 -2.7 12 15.0 ESE 22 35 12 19 1018.2 1015.6 0.0
22/12:30pm 29.8 22.9 -2.6 12 15.1 ESE 24 35 13 19 1018.6 1016.1 0.0
22/12:00pm 29.2 23.5 -1.0 14 14.4 E 19 30 10 16 1019.1 1016.6 0.0
22/11:30am 28.6 22.6 -1.5 14 14.2 E 20 35 11 19 1019.5 1017.0 0.0
22/11:00am 28.5 22.7 -1.6 14 14.1 ESE 19 28 10 15 1019.9 1017.4 0.0
22/10:30am 28.2 21.7 -2.8 13 14.2 ENE 22 30 12 16 1020.3 1017.9 0.0
22/10:00am 27.8 21.8 -1.2 15 13.6 ENE 20 28 11 15 1020.4 1018.0 0.0
22/09:30am 26.9 21.8 0.6 18 12.7 ENE 17 24 9 13 1020.8 1018.3 0.0
22/09:00am 25.5 22.5 4.0 25 10.9 ESE 9 15 5 8 1020.8 1018.3 0.0
22/08:30am 22.3 21.1 8.1 40 7.6 SE 4 7 2 4 1020.6 1018.1 0.0
22/08:00am 19.2 18.1 8.5 50 5.7 SSW 4 4 2 2 1020.3 1017.9 0.0
22/07:30am 17.1 16.2 9.3 60 4.2 SW 4 7 2 4 1020.3 1017.9 0.0
22/07:00am 16.0 15.5 9.4 65 3.5 SW 2 4 1 2 1020.0 1017.5 0.0
22/06:30am 15.3 14.7 10.3 72 2.7 SW 4 6 2 3 1019.7 1017.2 0.0
22/06:00am 15.3 14.2 8.5 64 3.5 SSW 4 6 2 3 1019.5 1017.0 0.0
22/05:30am 15.6 13.6 4.3 47 5.4 SSE 4 7 2 4 1019.1 1016.6 0.0
22/05:00am 16.2 13.7 3.9 44 5.8 SSW 6 7 3 4 1018.9 1016.4 0.0
22/04:30am 18.9 16.6 2.7 34 7.7 E 4 9 2 5 1018.6 1016.1 0.0
22/04:00am 20.1 16.6 1.5 29 8.7 ENE 9 11 5 6 1018.4 1015.9 0.0
22/03:30am 20.3 16.5 1.7 29 8.7 ENE 11 15 6 8 1018.4 1015.9 0.0
22/03:00am 20.6 17.2 2.0 29 8.8 ENE 9 13 5 7 1018.4 1015.9 0.0
22/02:30am 21.0 17.6 1.8 28 9.1 ENE 9 13 5 7 1018.5 1016.0 0.0
22/02:00am 21.3 17.6 2.1 28 9.1 ENE 11 13 6 7 1018.5 1016.0 0.0
22/01:30am 21.1 17.9 2.9 30 8.8 ENE 9 11 5 6 1018.7 1016.2 0.0
22/01:00am 20.9 18.1 3.2 31 8.6 E 7 9 4 5 1019.0 1016.5 0.0
22/12:30am 21.4 18.6 3.1 30 8.9 NE 7 9 4 5 1019.3 1016.8 0.0
22/12:00am 21.6 18.6 4.2 32 8.6 ENE 9 11 5 6 1019.5 1017.0 0.0
 
Date/Time
WST
Temp
°C
App
Temp
°C
Dew
Point
°C
Rel
Hum
%
Delta-T
°C
Wind Press
QNH
hPa
Press
MSL
hPa
Rain since
9am
mm
Dir  Spd
km/h
Gust
km/h
Spd
kts
Gust
kts
21/11:30pm 22.5 19.1 4.1 30 9.2 E 11 17 6 9 1019.7 1017.2 0.0
21/11:00pm 22.4 19.7 5.4 33 8.7 E 9 11 5 6 1019.8 1017.3 0.0
21/10:30pm 22.9 20.6 5.8 33 8.8 ESE 7 11 4 6 1019.9 1017.4 0.0
21/10:00pm 23.5 20.4 5.4 31 9.3 ESE 11 15 6 8 1020.0 1017.5 0.0
21/09:30pm 23.8 21.0 5.2 30 9.5 ESE 9 13 5 7 1020.0 1017.5 0.0
21/09:00pm 24.0 21.6 5.4 30 9.6 ESE 7 9 4 5 1019.8 1017.3 0.0
21/08:30pm 24.0 21.6 5.4 30 9.6 SE 7 9 4 5 1019.6 1017.1 0.0
21/08:00pm 25.0 22.2 5.2 28 10.2 SE 9 13 5 7 1019.3 1016.8 0.0
21/07:30pm 26.0 23.1 4.5 25 11.0 ESE 9 13 5 7 1019.0 1016.5 0.0
21/07:00pm 26.6 23.7 4.4 24 11.4 SE 9 13 5 7 1018.6 1016.1 0.0
21/06:30pm 27.0 23.6 4.1 23 11.8 SSE 11 17 6 9 1018.3 1015.8 0.0
21/06:00pm 27.9 23.7 3.6 21 12.4 SSE 15 20 8 11 1017.9 1015.4 0.0
21/05:30pm 28.8 24.9 3.6 20 13.0 SSE 13 19 7 10 1017.5 1015.0 0.0
21/05:00pm 29.8 26.0 3.7 19 13.5 SSE 13 20 7 11 1017.3 1014.8 0.0
21/04:30pm 30.1 25.0 3.2 18 13.9 SE 19 26 10 14 1017.0 1014.5 0.0
21/04:00pm 30.8 26.5 3.0 17 14.3 ESE 15 28 8 15 1016.8 1014.3 0.0
21/03:30pm 30.6 25.8 2.8 17 14.3 ESE 17 26 9 14 1016.9 1014.4 0.0
21/03:00pm 30.6 27.4 2.8 17 14.3 SSE 9 17 5 9 1016.8 1014.3 0.0
21/02:30pm 30.1 25.6 2.4 17 14.1 SE 15 24 8 13 1016.8 1014.3 0.0
21/02:00pm 31.1 27.3 4.0 18 14.2 SSE 13 24 7 13 1016.9 1014.4 0.0
21/01:30pm 29.9 26.3 3.0 18 13.8 SE 11 20 6 11 1017.2 1014.7 0.0
21/01:00pm 30.0 27.0 3.9 19 13.6 ESE 9 19 5 10 1017.4 1014.9 0.0
21/12:30pm 29.7 25.1 3.6 19 13.5 ESE 17 26 9 14 1017.7 1015.2 0.0
21/12:00pm 29.8 25.2 3.7 19 13.5 E 17 26 9 14 1017.8 1015.3 0.0
21/11:30am 28.9 24.3 3.7 20 13.0 E 17 28 9 15 1018.3 1015.8 0.0
21/11:00am 28.6 23.5 4.2 21 12.6 E 20 30 11 16 1018.5 1016.0 0.0
21/10:30am 28.3 23.3 4.6 22 12.4 E 20 30 11 16 1018.8 1016.3 0.0
21/10:00am 27.3 23.1 5.6 25 11.4 E 17 26 9 14 1019.2 1016.7 0.0
21/09:30am 24.8 21.6 9.9 39 8.4 ESE 17 22 9 12 1019.5 1017.0 0.0
21/09:00am 23.0 19.7 9.4 42 7.5 ESE 17 24 9 13 1019.7 1017.2 0.0
21/08:30am 21.3 19.4 10.5 50 6.0 ESE 11 15 6 8 1019.8 1017.3 0.0
21/08:00am 19.3 18.7 11.8 62 4.2 SSE 6 9 3 5 1019.7 1017.2 0.0
21/07:30am 18.0 17.8 12.9 72 2.9 S 6 7 3 4 1019.7 1017.2 0.0
21/07:06am 16.9 17.0 12.6 76 2.4 S 4 6 2 3 1019.4 1016.9 0.0
21/07:00am 17.0 17.0 12.3 74 2.6 SSE 4 6 2 3 1019.4 1016.9 0.0
21/06:50am 16.9 17.0 12.6 76 2.4 SE 4 6 2 3 1019.3 1016.8 0.0
21/06:30am 15.6 16.0 12.5 82 1.7 S 2 4 1 2 1019.1 1016.6 0.0
21/06:00am 15.5 15.2 12.6 83 1.6 SSW 6 9 3 5 1018.9 1016.4 0.0
21/05:30am 15.8 15.2 12.4 80 1.9 SW 7 9 4 5 1018.5 1016.0 0.0
21/05:00am 15.9 15.9 12.5 80 1.9 SSW 4 4 2 2 1018.1 1015.5 0.0
21/04:30am 16.4 16.4 12.4 77 2.2 SSW 4 4 2 2 1017.8 1015.3 0.0
21/04:00am 16.3 15.9 12.5 78 2.1 SW 6 7 3 4 1017.8 1015.3 0.0
21/03:30am 16.5 16.0 12.5 77 2.3 SSW 7 9 4 5 1017.5 1015.0 0.0
21/03:00am 17.0 16.5 12.1 73 2.7 S 6 7 3 4 1017.4 1014.9 0.0
21/02:30am 17.1 16.4 12.0 72 2.9 S 7 9 4 5 1017.1 1014.6 0.0
21/02:00am 17.5 17.0 12.0 70 3.1 SSW 6 7 3 4 1017.1 1014.6 0.0
21/01:30am 17.9 17.2 11.5 66 3.6 SSW 6 7 3 4 1017.2 1014.7 0.0
21/01:00am 18.6 18.8 11.7 64 3.9 SSE 2 6 1 3 1017.4 1014.9 0.0
21/12:30am 19.1 18.6 12.1 64 4.0 SSE 6 9 3 5 1017.6 1015.1 0.0
21/12:00am 19.3 19.0 12.6 65 3.8 S 6 7 3 4 1017.7 1015.2 0.0
 
Date/Time
WST
Temp
°C
App
Temp
°C
Dew
Point
°C
Rel
Hum
%
Delta-T
°C
Wind Press
QNH
hPa
Press
MSL
hPa
Rain since
9am
mm
Dir  Spd
km/h
Gust
km/h
Spd
kts
Gust
kts
20/11:44pm 19.2 18.4 12.9 67 3.6 SSW 9 11 5 6 1017.8 1015.3 0.0
20/11:30pm 19.6 19.3 12.8 65 3.9 S 6 6 3 3 1017.8 1015.3 0.0
20/11:28pm 19.7 19.5 12.9 65 3.9 S 6 6 3 3 1017.8 1015.3 0.0
20/11:00pm 21.3 21.3 12.4 57 5.1 ESE 4 6 2 3 1017.9 1015.4 0.0
20/10:30pm 21.2 21.3 12.6 58 5.0 S 4 6 2 3 1018.3 1015.8 0.0
20/10:00pm 21.4 20.9 12.8 58 5.0 SSE 7 11 4 6 1018.3 1015.8 0.0

Other formats

Comma delimited format used in spreadsheet applications
http://www.bom.gov.au/fwo/IDW60801/IDW60801.99737.axf

JavaScript Object Notation format (JSON) in row-major order
http://www.bom.gov.au/fwo/IDW60801/IDW60801.99737.json

Data quality

Most of these data are generated automatically and are frequently updated. Quality checks on data are not normally performed. It is possible for incorrect values to appear. Refer to information at About Latest Weather Observations and please check the disclaimer before using these data.